Time;durP1;ratioP1;P1;durP2;ratioP2;P2;SDS_P1;SDS_P2;PMS_P1;PMS_P2;Temp;Humidity;BMP_temperature;BMP_pressure;BME280_temperature;BME280_humidity;BME280_pressure;Samples;Min_cycle;Max_cycle;Signal;HPM_P1;HPM_P2
2022/10/27 00:01:33;;;;;;;15.77;3.15;;;;;;;;;;6218769;23;20477;-71
2022/10/27 00:03:59;;;;;;;16.30;3.92;;;;;;;;;;6218886;23;20328;-72
2022/10/27 00:06:25;;;;;;;15.00;3.75;;;;;;;;;;6218545;23;20016;-72
2022/10/27 00:08:51;;;;;;;9.88;3.22;;;;;;;;;;6193768;23;20047;-71
2022/10/27 00:11:18;;;;;;;11.45;3.22;;;;;;;;;;6218718;23;20027;-71
2022/10/27 00:13:44;;;;;;;12.13;3.25;;;;;;;;;;6218933;23;20356;-71
2022/10/27 00:16:11;;;;;;;12.77;3.58;;;;;;;;;;6218697;23;20017;-71
2022/10/27 00:18:37;;;;;;;11.77;3.53;;;;;;;;;;6219177;23;20338;-71
2022/10/27 00:21:08;;;;;;;10.10;2.85;;;;;;;;;;6219092;23;20013;-71
2022/10/27 00:23:34;;;;;;;12.90;3.17;;;;;;;;;;6221051;23;20434;-71
2022/10/27 00:26:01;;;;;;;15.07;3.70;;;;;;;;;;6220658;23;20023;-72
2022/10/27 00:28:27;;;;;;;16.60;3.35;;;;;;;;;;6220897;23;20050;-72
2022/10/27 00:31:04;;;;;;;13.70;3.70;;;;;;;;;;6220524;23;20091;-72
2022/10/27 00:33:30;;;;;;;10.80;3.40;;;;;;;;;;6220833;23;20023;-69
2022/10/27 00:35:56;;;;;;;11.20;3.58;;;;;;;;;;6220540;23;20357;-69
2022/10/27 00:38:22;;;;;;;15.85;3.58;;;;;;;;;;6220672;23;20018;-69
2022/10/27 00:40:49;;;;;;;12.00;3.80;;;;;;;;;;6220335;23;20038;-69
2022/10/27 00:43:47;;;;;;;12.63;3.88;;;;;;;;;;6220921;23;20066;-69
2022/10/27 00:46:25;;;;;;;12.63;3.38;;;;;;;;;;6146450;23;20016;-69
2022/10/27 00:48:54;;;;;;;12.45;3.85;;;;;;;;;;6200351;23;20418;-69
2022/10/27 00:51:20;;;;;;;15.60;4.35;;;;;;;;;;6160375;23;20422;-69
2022/10/27 00:53:47;;;;;;;9.93;3.88;;;;;;;;;;6185333;23;20013;-71
2022/10/27 00:56:13;;;;;;;15.52;4.10;;;;;;;;;;6185066;23;20013;-69
2022/10/27 00:58:40;;;;;;;15.88;5.10;;;;;;;;;;6185783;23;20340;-69
2022/10/27 01:01:06;;;;;;;11.00;4.47;;;;;;;;;;6185625;23;20013;-69
2022/10/27 01:03:32;;;;;;;13.73;4.75;;;;;;;;;;6185306;23;20028;-69
2022/10/27 01:05:59;;;;;;;16.73;5.38;;;;;;;;;;6185346;23;20020;-69
2022/10/27 01:08:25;;;;;;;16.63;6.97;;;;;;;;;;6185133;23;20101;-69
2022/10/27 01:10:52;;;;;;;20.63;5.43;;;;;;;;;;6185552;23;20028;-69
2022/10/27 01:13:19;;;;;;;14.55;6.20;;;;;;;;;;6185172;23;20023;-69
2022/10/27 01:15:45;;;;;;;16.85;5.85;;;;;;;;;;6185088;23;20017;-69
2022/10/27 01:18:35;;;;;;;18.58;6.40;;;;;;;;;;6160791;23;20439;-69
2022/10/27 01:21:01;;;;;;;15.38;6.10;;;;;;;;;;6185521;23;20099;-69
2022/10/27 01:23:36;;;;;;;12.65;6.13;;;;;;;;;;6160604;23;20035;-69
2022/10/27 01:26:17;;;;;;;17.48;6.68;;;;;;;;;;6184966;23;20025;-69
2022/10/27 01:29:08;;;;;;;18.67;6.60;;;;;;;;;;6185351;23;20091;-69
2022/10/27 01:31:34;;;;;;;18.83;6.88;;;;;;;;;;6160373;23;20112;-69
2022/10/27 01:34:05;;;;;;;16.15;6.78;;;;;;;;;;6160006;23;20068;-69
2022/10/27 01:36:50;;;;;;;12.88;6.72;;;;;;;;;;6184849;23;20047;-69
2022/10/27 01:39:22;;;;;;;19.10;6.35;;;;;;;;;;6185154;23;20452;-70
2022/10/27 01:41:55;;;;;;;11.45;6.60;;;;;;;;;;6160128;23;20457;-69
2022/10/27 01:44:24;;;;;;;17.20;6.32;;;;;;;;;;6185202;23;20016;-69
2022/10/27 01:46:52;;;;;;;15.43;7.03;;;;;;;;;;6184580;23;20083;-69
2022/10/27 01:49:19;;;;;;;21.92;8.05;;;;;;;;;;6184683;23;20057;-69
2022/10/27 01:51:46;;;;;;;18.58;7.75;;;;;;;;;;6184821;23;20020;-69
2022/10/27 01:54:12;;;;;;;22.52;8.65;;;;;;;;;;6184664;23;20368;-69
2022/10/27 01:56:47;;;;;;;15.15;7.95;;;;;;;;;;6184800;23;20394;-69
2022/10/27 01:59:13;;;;;;;14.25;6.97;;;;;;;;;;6184690;23;20458;-70
2022/10/27 02:01:45;;;;;;;13.02;7.22;;;;;;;;;;6184522;23;20447;-69
2022/10/27 02:04:21;;;;;;;16.58;7.80;;;;;;;;;;6184914;23;20017;-69
2022/10/27 02:06:55;;;;;;;15.20;8.10;;;;;;;;;;6184498;23;20016;-70
2022/10/27 02:09:44;;;;;;;12.68;7.00;;;;;;;;;;6159925;23;20462;-69
2022/10/27 02:12:16;;;;;;;15.43;8.00;;;;;;;;;;6184433;23;20020;-69
2022/10/27 02:14:43;;;;;;;18.27;8.07;;;;;;;;;;6184766;23;20021;-69
2022/10/27 02:17:10;;;;;;;17.67;8.57;;;;;;;;;;6159818;23;20039;-69
2022/10/27 02:19:38;;;;;;;23.40;9.07;;;;;;;;;;6184632;23;20017;-69
2022/10/27 02:22:04;;;;;;;15.65;8.10;;;;;;;;;;6184382;23;20020;-70
2022/10/27 02:24:30;;;;;;;18.05;8.27;;;;;;;;;;6184824;23;20017;-70
2022/10/27 02:27:20;;;;;;;14.90;8.77;;;13.20;99.90;;;;;;6184511;23;20017;-69
2022/10/27 02:29:47;;;;;;;12.07;8.00;;;;;;;;;;6184739;23;20430;-69
2022/10/27 02:32:15;;;;;;;18.50;8.35;;;;;;;;;;6184390;23;20043;-69
2022/10/27 02:34:42;;;;;;;20.63;8.65;;;;;;;;;;6184419;23;20317;-69
2022/10/27 02:37:09;;;;;;;16.80;9.55;;;;;;;;;;6184313;23;20040;-69
2022/10/27 02:39:35;;;;;;;21.95;9.60;;;;;;;;;;6184564;23;20013;-70
2022/10/27 02:42:02;;;;;;;17.48;9.65;;;;;;;;;;6184363;23;20025;-70
2022/10/27 02:44:28;;;;;;;14.82;8.50;;;;;;;;;;6159636;23;20017;-69
2022/10/27 02:46:54;;;;;;;17.30;9.27;;;;;;;;;;6184599;23;20470;-70
2022/10/27 02:49:20;;;;;;;14.30;8.25;;;;;;;;;;6228737;23;20099;-69
2022/10/27 02:51:46;;;;;;;16.77;9.15;;;;;;;;;;6219073;23;20043;-69
2022/10/27 02:54:12;;;;;;;19.98;8.95;;;;;;;;;;6219531;23;20350;-69
2022/10/27 02:56:38;;;;;;;13.43;8.63;;;;;;;;;;6219938;23;20038;-70
2022/10/27 02:59:04;;;;;;;15.05;9.18;;;;;;;;;;6219565;23;20012;-69
2022/10/27 03:01:30;;;;;;;18.90;9.35;;;;;;;;;;6219720;23;20012;-69
2022/10/27 03:03:56;;;;;;;15.65;9.05;;;;;;;;;;6194013;23;20046;-69
2022/10/27 03:06:22;;;;;;;19.05;9.45;;;;;;;;;;6219583;23;20087;-69
2022/10/27 03:08:48;;;;;;;22.40;9.35;;;;;;;;;;6219433;23;20012;-69
2022/10/27 03:11:14;;;;;;;16.23;9.55;;;;;;;;;;6219616;23;20074;-69
2022/10/27 03:13:40;;;;;;;21.25;10.02;;;;;;;;;;6218957;23;20016;-69
2022/10/27 03:16:07;;;;;;;21.08;10.02;;;;;;;;;;6219569;23;20012;-70
2022/10/27 03:18:33;;;;;;;15.50;9.45;;;;;;;;;;6219272;23;20415;-69
2022/10/27 03:20:59;;;;;;;20.13;9.80;;;;;;;;;;6218987;23;20012;-69
2022/10/27 03:23:25;;;;;;;14.13;9.18;;;;;;;;;;6218918;23;20012;-70
2022/10/27 03:25:51;;;;;;;18.48;10.02;;;;;;;;;;6246319;23;20016;-69
2022/10/27 03:28:17;;;;;;;18.88;8.88;;;;;;;;;;6219211;23;20019;-70
2022/10/27 03:30:43;;;;;;;21.05;9.52;;;;;;;;;;6194194;23;20447;-69
2022/10/27 03:33:09;;;;;;;16.30;9.88;;;;;;;;;;6218816;23;20016;-70
2022/10/27 03:35:35;;;;;;;15.27;9.52;;;;;;;;;;6219379;23;20043;-69
2022/10/27 03:38:02;;;;;;;16.75;9.32;;;;;;;;;;6219040;23;20059;-70
2022/10/27 03:40:28;;;;;;;15.73;10.55;;;;;;;;;;6218889;23;20052;-69
2022/10/27 03:42:57;;;;;;;15.40;9.55;;;;;;;;;;6218873;23;20013;-69
2022/10/27 03:45:27;;;;;;;19.02;9.90;;;;;;;;;;6219638;23;20087;-69
2022/10/27 03:48:07;;;;;;;17.38;9.25;;;;;;;;;;6246088;23;20016;-70
2022/10/27 03:50:33;;;;;;;19.05;9.75;;;;;;;;;;6219046;23;20027;-69
2022/10/27 03:52:59;;;;;;;18.98;9.57;;;;;;;;;;6218957;23;20082;-70
2022/10/27 03:55:25;;;;;;;17.23;9.82;;;;;;;;;;6219999;23;20012;-69
2022/10/27 03:57:52;;;;;;;19.40;9.95;;;;;;;;;;6220976;23;20058;-69
2022/10/27 04:00:19;;;;;;;23.83;9.25;;;;;;;;;;6220811;23;20012;-69
2022/10/27 04:02:45;;;;;;;17.75;9.63;;;;;;;;;;6221262;23;20023;-70
2022/10/27 04:05:11;;;;;;;17.25;10.52;;;;;;;;;;6221471;23;20101;-70
2022/10/27 04:07:37;;;;;;;18.40;8.75;;;;;;;;;;6221223;22;20023;-69
2022/10/27 04:10:03;;;;;;;19.50;9.95;;;;;;;;;;6220687;23;20031;-69
2022/10/27 04:12:29;;;;;;;21.25;9.90;;;;;;;;;;6220761;23;20016;-69
2022/10/27 04:14:55;;;;;;;19.77;9.95;;;;;;;;;;6220736;23;20031;-69
2022/10/27 04:17:21;;;;;;;19.42;10.05;;;;;;;;;;6221388;23;20040;-69
2022/10/27 04:19:48;;;;;;;24.17;10.07;;;;;;;;;;6220621;23;20019;-69
2022/10/27 04:22:14;;;;;;;17.85;9.93;;;;;;;;;;6247575;23;20342;-69
2022/10/27 04:24:40;;;;;;;20.15;9.98;;;;;;;;;;6220451;23;20020;-69
2022/10/27 04:27:06;;;;;;;20.45;10.00;;;;;;;;;;6220684;23;20091;-69
2022/10/27 04:29:32;;;;;;;18.88;9.35;;;;;;;;;;6220528;23;20020;-69
2022/10/27 04:31:59;;;;;;;18.13;9.23;;;;;;;;;;6220469;23;20390;-69
2022/10/27 04:34:25;;;;;;;14.98;9.38;;;;;;;;;;6220293;23;20103;-69
2022/10/27 04:36:51;;;;;;;17.52;9.38;;;;;;;;;;6220605;23;20342;-70
2022/10/27 04:39:17;;;;;;;21.30;9.68;;;;;;;;;;6220848;23;20008;-69
2022/10/27 04:41:43;;;;;;;16.70;10.05;;;;;;;;;;6220688;23;20043;-69
2022/10/27 04:44:09;;;;;;;13.68;8.82;;;;;;;;;;6220505;23;20020;-69
2022/10/27 04:46:35;;;;;;;16.95;8.77;;;;;;;;;;6220998;23;20020;-70
2022/10/27 04:49:01;;;;;;;17.52;9.13;;;;;;;;;;6220285;23;20446;-69
2022/10/27 04:51:27;;;;;;;18.67;9.57;;;;;;;;;;6220631;23;20012;-69
2022/10/27 04:53:53;;;;;;;16.75;9.20;;;;;;;;;;6219979;23;20023;-70
2022/10/27 04:56:19;;;;;;;17.00;9.35;;;;;;;;;;6221043;23;20012;-69
2022/10/27 04:58:45;;;;;;;18.27;9.07;;;;;;;;;;6247234;23;20023;-69
2022/10/27 05:01:12;;;;;;;17.85;8.27;;;;;;;;;;6220377;23;20008;-69
2022/10/27 05:03:38;;;;;;;16.73;8.40;;;;;;;;;;6220642;23;20094;-69
2022/10/27 05:06:05;;;;;;;16.55;8.85;;;;;;;;;;6195511;23;20457;-69
2022/10/27 05:08:31;;;;;;;14.57;8.05;;;;;;;;;;6219890;23;20012;-69
2022/10/27 05:10:57;;;;;;;19.40;9.13;;;;;;;;;;6220401;23;20020;-69
2022/10/27 05:13:23;;;;;;;16.17;8.15;;;;;;;;;;6220364;23;20012;-70
2022/10/27 05:15:49;;;;;;;15.15;7.90;;;;;;;;;;6220183;23;20012;-69
2022/10/27 05:18:15;;;;;;;14.88;8.38;;;;;;;;;;6220203;23;20386;-70
2022/10/27 05:20:41;;;;;;;14.40;8.15;;;;;;;;;;6220330;23;20016;-69
2022/10/27 05:23:07;;;;;;;14.05;7.95;;;;;;;;;;6220279;23;20015;-70
2022/10/27 05:25:33;;;;;;;18.35;8.40;;;;;;;;;;6220159;23;20050;-70
2022/10/27 05:28:04;;;;;;;15.32;8.77;;;;;;;;;;6220140;23;20016;-69
2022/10/27 05:30:30;;;;;;;13.48;7.88;;;;;;;;;;6219991;23;20074;-70
2022/10/27 05:32:56;;;;;;;17.80;7.68;;;;;;;;;;6220607;23;20016;-69
2022/10/27 05:35:22;;;;;;;17.50;7.47;;;;;;;;;;6220017;23;20038;-69
2022/10/27 05:37:48;;;;;;;16.13;7.85;;;;;;;;;;6220647;23;20016;-69
2022/10/27 05:40:14;;;;;;;16.05;7.45;;;;;;;;;;6219724;23;20091;-69
2022/10/27 05:42:40;;;;;;;20.25;8.45;;;;;;;;;;6220775;23;20094;-69
2022/10/27 05:45:07;;;;;;;16.40;8.15;;;;;;;;;;6194885;23;20095;-69
2022/10/27 05:47:33;;;;;;;15.48;7.93;;;;;;;;;;6220093;23;20020;-69
2022/10/27 05:49:59;;;;;;;16.92;7.72;;;;;;;;;;6194502;23;20074;-70
2022/10/27 05:52:25;;;;;;;14.65;8.20;;;;;;;;;;6219966;23;20422;-70
2022/10/27 05:54:51;;;;;;;17.20;9.18;;;;;;;;;;6219952;23;20016;-69
2022/10/27 05:57:17;;;;;;;18.67;8.48;;;;;;;;;;6220261;23;20012;-69
2022/10/27 05:59:43;;;;;;;15.00;8.13;;;;;;;;;;6219872;23;20028;-70
2022/10/27 06:02:10;;;;;;;16.35;8.50;;;;;;;;;;6220433;23;20027;-70
2022/10/27 06:04:36;;;;;;;17.23;9.13;;;;;;;;;;6219633;23;20071;-70
2022/10/27 06:07:02;;;;;;;15.88;8.63;;;;;;;;;;6219751;23;20016;-69
2022/10/27 06:09:28;;;;;;;12.27;7.45;;;;;;;;;;6219860;23;20438;-70
2022/10/27 06:11:54;;;;;;;19.13;8.07;;;;;;;;;;6219349;23;20017;-70
2022/10/27 06:14:20;;;;;;;18.58;8.30;;;;;;;;;;6246163;23;20016;-70
2022/10/27 06:16:46;;;;;;;21.30;7.40;;;;;;;;;;6219331;23;20039;-69
2022/10/27 06:19:12;;;;;;;15.02;8.32;;;;;;;;;;6218386;23;20027;-71
2022/10/27 06:21:38;;;;;;;19.33;7.72;;;;;;;;;;6218919;23;20012;-68
2022/10/27 06:24:04;;;;;;;18.02;7.95;;;;;;;;;;6218925;23;20012;-70
2022/10/27 06:26:30;;;;;;;17.02;7.78;;;;;;;;;;6218948;23;20030;-70
2022/10/27 06:28:56;;;;;;;12.15;7.57;;;;;;;;;;6218905;23;20016;-69
2022/10/27 06:31:23;;;;;;;17.17;7.70;;;;;;;;;;6218911;23;20034;-69
2022/10/27 06:33:49;;;;;;;15.27;7.38;;;;;;;;;;6218917;23;20715;-69
2022/10/27 06:36:15;;;;;;;15.48;7.43;;;;;;;;;;6219084;23;20020;-69
2022/10/27 06:38:41;;;;;;;13.77;7.57;;;;;;;;;;6218959;23;20019;-70
2022/10/27 06:41:07;;;;;;;13.98;8.13;;;;;;;;;;6245755;23;20050;-70
2022/10/27 06:43:33;;;;;;;12.40;6.97;;;;;;;;;;6245704;23;20481;-70
2022/10/27 06:45:59;;;;;;;16.88;7.45;;;;;;;;;;6218802;23;20082;-70
2022/10/27 06:48:25;;;;;;;15.88;7.53;;;;;;;;;;6218583;23;20020;-70
2022/10/27 06:50:51;;;;;;;9.45;7.38;;;;;;;;;;6218701;23;20074;-70
2022/10/27 06:53:17;;;;;;;11.60;7.18;;;;;;;;;;6218766;23;20039;-70
2022/10/27 06:55:43;;;;;;;14.32;7.68;;;;;;;;;;6218658;23;20016;-70
2022/10/27 06:58:09;;;;;;;15.52;7.60;;;;;;;;;;6218654;23;20012;-70
2022/10/27 07:00:36;;;;;;;16.13;7.72;;;;;;;;;;6218976;23;20027;-70
2022/10/27 07:03:09;;;;;;;12.30;7.25;;;;;;;;;;6219196;23;20191;-70
2022/10/27 07:05:35;;;;;;;14.00;7.63;;;;;;;;;;6218738;23;20020;-70
2022/10/27 07:08:01;;;;;;;16.27;8.20;;;;;;;;;;6218332;23;20016;-70
2022/10/27 07:10:27;;;;;;;22.23;8.35;;;;;;;;;;6218692;23;20045;-70
2022/10/27 07:12:57;;;;;;;9.57;6.75;;;;;;;;;;6218446;23;20012;-69
2022/10/27 07:15:24;;;;;;;12.77;7.35;;;;;;;;;;6219355;23;20012;-69
2022/10/27 07:17:57;;;;;;;11.93;7.10;;;;;;;;;;6219135;23;20077;-69
2022/10/27 07:20:24;;;;;;;13.27;7.22;;;;;;;;;;6219038;23;20020;-69
2022/10/27 07:22:50;;;;;;;14.20;8.00;;;;;;;;;;6219140;23;20012;-70
2022/10/27 07:25:16;;;;;;;13.05;8.20;;;;;;;;;;6219225;23;20043;-70
2022/10/27 07:27:46;;;;;;;14.25;7.78;;;;;;;;;;6219154;23;20016;-69
2022/10/27 07:30:12;;;;;;;18.65;8.55;;;;;;;;;;6219141;23;20240;-69
2022/10/27 07:32:38;;;;;;;15.40;7.97;;;;;;;;;;6219194;23;20020;-70
2022/10/27 07:35:05;;;;;;;19.20;7.95;;;;;;;;;;6219209;23;20023;-70
2022/10/27 07:37:31;;;;;;;17.52;10.02;;;;;;;;;;6219198;23;20012;-70
2022/10/27 07:39:57;;;;;;;14.75;8.60;;;;;;;;;;6219199;23;20012;-70
2022/10/27 07:42:23;;;;;;;17.13;9.02;;;;;;;;;;6219410;23;20078;-70
2022/10/27 07:44:49;;;;;;;22.33;8.52;;;;;;;;;;6219283;23;20020;-70
2022/10/27 07:47:15;;;;;;;14.02;8.20;;;;;;;;;;6219233;23;20016;-69
2022/10/27 07:49:41;;;;;;;16.63;8.45;;;;;;;;;;6219120;23;20059;-70
2022/10/27 07:52:07;;;;;;;16.55;8.30;;;;;;;;;;6219043;23;20446;-70
2022/10/27 07:54:34;;;;;;;18.73;8.77;;;;;;;;;;6218977;23;20385;-70
2022/10/27 07:57:00;;;;;;;14.48;9.05;;;;;;;;;;6218848;23;20008;-70
2022/10/27 07:59:26;;;;;;;17.63;8.38;;;;;;;;;;6219134;23;20008;-70
2022/10/27 08:01:52;;;;;;;11.07;7.70;;;;;;;;;;6219165;23;20087;-70
2022/10/27 08:04:18;;;;;;;14.70;8.77;;;;;;;;;;6219059;23;20028;-70
2022/10/27 08:06:44;;;;;;;12.73;8.10;;;;;;;;;;6219165;23;20451;-69
2022/10/27 08:09:10;;;;;;;12.55;8.40;;;;;;;;;;6219014;23;20012;-70
2022/10/27 08:11:36;;;;;;;16.30;8.80;;;;;;;;;;6218905;23;20019;-69
2022/10/27 08:14:02;;;;;;;13.88;8.30;;;;;;;;;;6219000;23;20048;-69
2022/10/27 08:16:29;;;;;;;12.45;8.27;;;;;;;;;;6219085;23;20012;-70
2022/10/27 08:18:55;;;;;;;13.93;7.55;;;;;;;;;;6245792;23;20350;-70
2022/10/27 08:21:22;;;;;;;14.57;7.50;;;;;;;;;;6218989;23;20050;-70
2022/10/27 08:23:48;;;;;;;12.95;7.45;;;;;;;;;;6219419;23;20512;-69
2022/10/27 08:26:14;;;;;;;11.57;7.22;;;;;;;;;;6218995;23;20012;-69
2022/10/27 08:28:40;;;;;;;17.40;7.05;;;;;;;;;;6218892;23;20016;-70
2022/10/27 08:31:06;;;;;;;15.38;6.72;;;;;;;;;;6218993;23;20012;-70
2022/10/27 08:33:32;;;;;;;13.82;6.90;;;;;;;;;;6218775;23;20020;-70
2022/10/27 08:36:01;;;;;;;10.15;6.38;;;;;;;;;;6194293;23;20023;-70
2022/10/27 08:38:31;;;;;;;11.40;6.68;;;;;;;;;;6218861;23;20070;-70
2022/10/27 08:41:10;;;;;;;11.73;7.10;;;;;;;;;;6218810;23;20008;-70
2022/10/27 08:43:42;;;;;;;11.93;6.13;;;;;;;;;;6220160;23;20346;-70
2022/10/27 08:46:08;;;;;;;9.73;5.90;;;;;;;;;;6220800;23;20012;-70
2022/10/27 08:48:35;;;;;;;10.55;6.00;;;;;;;;;;6220362;23;20024;-70
2022/10/27 08:51:02;;;;;;;13.70;6.07;;;;;;;;;;6220481;23;20042;-70
2022/10/27 08:53:35;;;;;;;10.35;5.43;;;;;;;;;;6220579;23;20016;-70
2022/10/27 08:56:05;;;;;;;11.18;5.68;;;;;;;;;;6220728;23;20012;-70
2022/10/27 08:58:47;;;;;;;10.20;5.35;;;;;;;;;;6220558;23;20012;-70
2022/10/27 09:01:13;;;;;;;14.75;5.85;;;;;;;;;;6220676;23;20458;-70
2022/10/27 09:03:48;;;;;;;12.07;5.25;;;;;;;;;;6220653;23;20016;-70
2022/10/27 09:06:35;;;;;;;14.82;5.43;;;;;;;;;;6220604;23;20043;-70
2022/10/27 09:09:21;;;;;;;8.93;5.00;;;;;;;;;;6220340;23;20083;-70
2022/10/27 09:11:57;;;;;;;8.45;4.90;;;;;;;;;;6220380;23;20019;-70
2022/10/27 09:14:28;;;;;;;5.75;4.43;;;;;;;;;;6220176;23;20070;-70
2022/10/27 09:17:01;;;;;;;9.93;5.22;;;;;;;;;;6220373;23;20016;-70
2022/10/27 09:19:30;;;;;;;9.95;4.90;;;;;;;;;;6220582;23;20008;-70
2022/10/27 09:21:57;;;;;;;10.50;5.43;;;;;;;;;;6218709;23;20096;-70
2022/10/27 09:24:26;;;;;;;9.02;4.38;;;;;;;;;;6247113;23;20073;-70
2022/10/27 09:26:53;;;;;;;12.10;4.78;;;;;;;;;;6220446;23;20401;-70
2022/10/27 09:29:20;;;;;;;8.60;4.95;;;;;;;;;;6220447;23;20087;-70
2022/10/27 09:31:52;;;;;;;8.95;4.78;;;;;;;;;;6220204;23;20453;-70
2022/10/27 09:34:34;;;;;;;9.82;4.30;;;;;;;;;;6220253;23;20050;-71
2022/10/27 09:37:00;;;;;;;9.95;4.80;;;;;;;;;;6220214;23;20019;-70
2022/10/27 09:39:26;;;;;;;7.45;3.60;;;;;;;;;;6220198;23;20012;-71
2022/10/27 09:41:53;;;;;;;11.60;4.53;;;;;;;;;;6220328;23;20058;-70
2022/10/27 09:44:20;;;;;;;14.82;4.68;;;;;;;;;;6220297;23;20012;-71
2022/10/27 09:46:56;;;;;;;7.95;4.07;;;;;;;;;;6220286;23;20055;-70
2022/10/27 09:49:26;;;;;;;9.45;4.30;;;;;;;;;;6219991;23;20044;-70
2022/10/27 09:51:54;;;;;;;8.80;4.20;;;;;;;;;;6219960;23;20055;-70
2022/10/27 09:54:30;;;;;;;9.52;4.50;;;;;;;;;;6220117;23;20107;-70
2022/10/27 09:57:15;;;;;;;8.90;4.65;;;;;;;;;;6220099;23;20071;-70
2022/10/27 09:59:41;;;;;;;7.32;4.20;;;;;;;;;;6195701;23;20087;-70
2022/10/27 10:02:28;;;;;;;11.75;4.75;;;;;;;;;;6219956;23;20024;-71
2022/10/27 10:04:54;;;;;;;9.70;4.30;;;;;;;;;;6219947;23;20012;-70
2022/10/27 10:07:47;;;;;;;9.85;4.45;;;;;;;;;;6194882;23;20020;-70
2022/10/27 10:10:24;;;;;;;8.10;4.05;;;;;;;;;;6190294;23;20016;-70
2022/10/27 10:13:02;;;;;;;9.13;4.50;;;;;;;;;;6219658;23;20509;-71
2022/10/27 10:15:30;;;;;;;10.15;4.82;;;15.90;99.90;;;;;;6219764;23;20431;-70
2022/10/27 10:17:57;;;;;;;10.05;5.15;;;;;;;;;;6246609;23;20016;-70
2022/10/27 10:20:26;;;;;;;9.73;4.70;;;;;;;;;;6219718;23;20016;-70
2022/10/27 10:22:52;;;;;;;9.75;4.50;;;;;;;;;;6219776;23;20046;-70
2022/10/27 10:25:29;;;;;;;12.23;4.38;;;;;;;;;;6219825;23;20093;-70
2022/10/27 10:28:06;;;;;;;7.38;4.35;;;;;;;;;;6219774;23;20089;-70
2022/10/27 10:30:34;;;;;;;9.65;4.22;;;;;;;;;;6219684;23;20016;-70
2022/10/27 10:33:03;;;;;;;9.88;4.25;;;;;;;;;;6219536;23;20405;-70
2022/10/27 10:35:46;;;;;;;9.55;4.22;;;;;;;;;;6219627;23;20488;-70
2022/10/27 10:38:24;;;;;;;9.27;4.32;;;;;;;;;;6219633;23;20012;-70
2022/10/27 10:41:10;;;;;;;10.07;4.10;;;16.30;99.90;;;;;;6219709;23;20057;-71
2022/10/27 10:43:36;;;;;;;8.45;3.97;;;;;;;;;;6219709;23;20023;-71
2022/10/27 10:46:03;;;;;;;13.55;4.43;;;;;;;;;;6219694;23;20027;-71
2022/10/27 10:48:38;;;;;;;8.02;3.65;;;;;;;;;;6219187;23;20022;-71
2022/10/27 10:51:06;;;;;;;9.77;4.00;;;16.70;99.90;;;;;;6219563;23;20066;-71
2022/10/27 10:53:48;;;;;;;12.30;3.95;;;;;;;;;;6219519;23;20332;-71
2022/10/27 10:56:20;;;;;;;11.35;3.38;;;;;;;;;;6219500;23;20102;-71
2022/10/27 10:58:47;;;;;;;;;;;17.00;99.90;;;;;;6220081;23;20044;-71
2022/10/27 11:01:13;;;;;;;7.18;3.55;;;;;;;;;;6219448;23;20288;-71
2022/10/27 11:03:43;;;;;;;9.18;3.08;;;17.00;99.90;;;;;;6219418;23;20044;-71
2022/10/27 11:06:18;;;;;;;6.28;3.00;;;;;;;;;;6218906;23;20020;-71
2022/10/27 11:08:44;;;;;;;6.70;3.28;;;;;;;;;;6219254;23;20450;-71
2022/10/27 11:11:17;;;;;;;7.40;3.38;;;;;;;;;;6219182;23;20516;-72
2022/10/27 11:13:46;;;;;;;12.05;3.22;;;;;;;;;;6218976;23;20493;-72
2022/10/27 11:16:13;;;;;;;6.43;3.28;;;;;;;;;;6219139;23;20062;-72
2022/10/27 11:18:47;;;;;;;9.73;3.35;;;17.30;99.90;;;;;;6220076;23;20324;-72
2022/10/27 11:21:31;;;;;;;10.30;2.88;;;;;;;;;;6246519;23;20495;-71
2022/10/27 11:24:02;;;;;;;8.55;3.22;;;;;;;;;;6219207;23;20069;-71
2022/10/27 11:26:40;;;;;;;7.53;3.13;;;;;;;;;;6219318;23;20016;-71
2022/10/27 11:29:13;;;;;;;7.85;2.92;;;;;;;;;;6246048;23;20012;-71
2022/10/27 11:31:53;;;;;;;7.75;3.05;;;;;;;;;;6219140;23;20023;-71
2022/10/27 11:34:22;;;;;;;5.72;2.60;;;;;;;;;;6246286;23;20318;-71
2022/10/27 11:36:52;;;;;;;11.70;2.50;;;;;;;;;;6219041;23;20446;-71
2022/10/27 11:39:44;;;;;;;8.32;2.80;;;18.50;99.90;;;;;;6246197;23;20008;-71
2022/10/27 11:42:28;;;;;;;7.82;2.70;;;18.80;99.90;;;;;;6219210;23;20350;-71
2022/10/27 11:45:14;;;;;;;8.05;2.80;;;18.60;99.90;;;;;;6219112;23;20059;-71
2022/10/27 11:47:49;;;;;;;6.28;2.60;;;;;;;;;;6219073;23;20099;-71
2022/10/27 11:50:21;;;;;;;6.13;2.40;;;;;;;;;;6218864;23;20021;-71
2022/10/27 11:52:47;;;;;;;;;;;;;;;;;;6219428;23;20092;-72
2022/10/27 11:55:17;;;;;;;5.57;2.55;;;18.80;99.90;;;;;;6219016;23;20292;-72
2022/10/27 11:57:53;;;;;;;8.85;2.60;;;;;;;;;;6219081;23;20020;-72
2022/10/27 12:00:21;;;;;;;6.20;2.55;;;;;;;;;;6219027;23;20012;-71
2022/10/27 12:02:47;;;;;;;5.95;2.63;;;;;;;;;;6219100;23;20020;-72
2022/10/27 12:05:17;;;;;;;5.68;2.30;;;;;;;;;;6219196;23;20024;-72
2022/10/27 12:07:46;;;;;;;6.07;2.17;;;;;;;;;;6219066;22;20030;-72
2022/10/27 12:10:22;;;;;;;8.98;2.40;;;;;;;;;;6219104;23;20492;-72
2022/10/27 12:12:50;;;;;;;5.55;2.40;;;;;;;;;;6218959;23;20339;-72
2022/10/27 12:15:16;;;;;;;4.50;2.05;;;;;;;;;;6219044;23;20023;-71
2022/10/27 12:17:51;;;;;;;8.20;2.35;;;;;;;;;;6219784;23;20009;-71
2022/10/27 12:20:24;;;;;;;6.72;1.92;;;;;;;;;;6220751;23;20012;-71
2022/10/27 12:22:56;;;;;;;8.90;2.20;;;;;;;;;;6220437;23;20072;-74
2022/10/27 12:25:22;;;;;;;3.60;1.85;;;;;;;;;;6220958;23;20096;-72
2022/10/27 12:27:50;;;;;;;6.13;2.13;;;;;;;;;;6220605;23;20063;-72
2022/10/27 12:30:17;;;;;;;7.88;2.30;;;;;;;;;;6220701;23;20369;-72
2022/10/27 12:32:52;;;;;;;7.00;2.13;;;;;;;;;;6220660;23;20012;-72
2022/10/27 12:35:22;;;;;;;4.88;2.08;;;;;;;;;;6220962;23;20019;-72
2022/10/27 12:37:48;;;;;;;4.05;2.00;;;;;;;;;;6220815;23;20569;-72
2022/10/27 12:40:43;;;;;;;4.68;2.30;;;;;;;;;;6220727;23;20016;-72
2022/10/27 12:43:09;;;;;;;5.03;2.33;;;;;;;;;;6195270;23;20043;-72
2022/10/27 12:45:35;;;;;;;6.15;1.92;;;;;;;;;;6220874;23;20016;-72
2022/10/27 12:48:16;;;;;;;3.83;1.90;;;;;;;;;;6220348;23;20022;-72
2022/10/27 12:50:45;;;;;;;9.73;2.72;;;;;;;;;;6198195;23;20025;-72
2022/10/27 12:53:21;;;;;;;9.30;2.00;;;;;;;;;;6185274;23;20325;-73
2022/10/27 12:56:42;;;;;;;5.93;1.90;;;18.40;99.90;;;;;;6185850;23;20383;-72
2022/10/27 12:59:20;;;;;;;8.23;2.05;;;;;;;;;;6128568;23;20025;-72
2022/10/27 13:01:56;;;;;;;4.60;1.63;;;18.40;99.90;;;;;;6185106;23;20013;-72
2022/10/27 13:04:25;;;;;;;5.22;2.30;;;;;;;;;;6187075;23;20088;-73
2022/10/27 13:06:51;;;;;;;4.00;1.70;;;;;;;;;;6185502;23;20448;-73
2022/10/27 13:09:26;;;;;;;7.72;2.20;;;;;;;;;;6185251;23;20013;-72
2022/10/27 13:12:08;;;;;;;6.50;2.30;;;;;;;;;;6185133;23;20016;-72
2022/10/27 13:14:43;;;;;;;6.88;1.90;;;;;;;;;;6185255;23;20525;-72
2022/10/27 13:17:09;;;;;;;7.25;1.77;;;;;;;;;;6185429;23;20021;-72
2022/10/27 13:19:48;;;;;;;8.57;2.33;;;;;;;;;;6185258;23;20490;-72
2022/10/27 13:22:15;;;;;;;4.93;2.13;;;;;;;;;;6184949;23;20482;-72
2022/10/27 13:24:50;;;;;;;6.30;2.40;;;;;;;;;;6185165;23;20072;-69
2022/10/27 13:27:46;;;;;;;8.45;2.05;;;;;;;;;;6185210;23;20021;-72
2022/10/27 13:30:12;;;;;;;11.38;2.60;;;;;;;;;;6133612;23;20408;-72
2022/10/27 13:32:41;;;;;;;4.63;1.85;;;;;;;;;;6184954;23;20055;-72
2022/10/27 13:35:07;;;;;;;8.13;2.47;;;;;;;;;;6185147;23;20024;-72
2022/10/27 13:37:36;;;;;;;5.90;1.80;;;;;;;;;;6185134;23;20013;-72
2022/10/27 13:40:02;;;;;;;9.07;1.98;;;;;;;;;;6185003;23;20045;-72
2022/10/27 13:42:29;;;;;;;8.13;2.28;;;;;;;;;;6185084;23;20017;-72
2022/10/27 13:44:55;;;;;;;5.38;2.10;;;;;;;;;;6186363;23;20024;-72
2022/10/27 13:47:21;;;;;;;7.13;2.03;;;;;;;;;;6185078;23;20017;-72
2022/10/27 13:49:51;;;;;;;8.60;2.20;;;;;;;;;;6194298;23;20016;-72
2022/10/27 13:52:17;;;;;;;10.77;2.38;;;;;;;;;;6218463;23;20024;-72
2022/10/27 13:55:31;;;;;;;6.40;2.30;;;17.50;99.90;;;;;;6219967;23;20346;-72
2022/10/27 13:58:03;;;;;;;7.15;2.55;;;17.60;99.90;;;;;;6219970;23;20012;-72
2022/10/27 14:00:52;;;;;;;9.02;2.67;;;17.60;99.90;;;;;;6219816;23;20443;-72
2022/10/27 14:03:37;;;;;;;7.38;2.80;;;;;;;;;;6164674;23;20039;-72
2022/10/27 14:06:18;;;;;;;8.60;2.40;;;;;;;;;;6219813;23;20016;-73
2022/10/27 14:08:44;;;;;;;7.05;2.45;;;;;;;;;;6219934;23;20052;-73
2022/10/27 14:11:20;;;;;;;7.07;2.22;;;17.40;99.90;;;;;;6219719;23;20362;-73
2022/10/27 14:13:48;;;;;;;6.72;2.65;;;17.30;99.90;;;;;;6219455;23;20052;-73
2022/10/27 14:16:27;;;;;;;6.40;2.63;;;17.50;99.90;;;;;;6219758;23;20438;-73
2022/10/27 14:19:02;;;;;;;5.80;2.55;;;;;;;;;;6219541;23;20012;-72
2022/10/27 14:21:29;;;;;;;12.10;3.55;;;;;;;;;;6219856;23;20043;-72
2022/10/27 14:24:06;;;;;;;7.65;3.03;;;17.30;99.90;;;;;;6219913;23;20095;-72
2022/10/27 14:26:36;;;;;;;8.50;2.38;;;;;;;;;;6194609;23;20505;-72
2022/10/27 14:29:02;;;;;;;8.02;2.63;;;;;;;;;;6246798;23;20016;-73
2022/10/27 14:31:29;;;;;;;6.70;2.40;;;;;;;;;;6219181;23;20024;-73
2022/10/27 14:33:55;;;;;;;7.65;2.42;;;;;;;;;;6217949;23;20492;-73
2022/10/27 14:36:32;;;;;;;6.72;2.85;;;;;;;;;;6217468;23;20406;-72
2022/10/27 14:39:03;;;;;;;7.90;2.60;;;;;;;;;;6218507;23;20012;-72
2022/10/27 14:41:34;;;;;;;7.28;2.30;;;;;;;;;;6217654;23;20502;-72